YNG weather

Youngstown Warren Regional Airport
Youngstown/Warren, Ohio, United States

Public forecast

Using degrees Fahrenheit for public forecast. Weather courtesy of forecast.io.

METAR (pilot weather report)

Retrieved 2019/03/24 03:51 UTC (50 minutes ago):

KYNG 240351Z 00000KT 10SM CLR M02/M11 A3024 RMK AO2 SLP252 T10171111

TAF (pilot weather forecast)

Forecast is more than 12 hours old.

Retrieved 2019/03/23 00:22 UTC (1 day ago):

TAF KYNG 232320Z 2400/2424 25004KT P6SM SKC FM241300 21005KT P6SM BKN250 FM241600 23007KT P6SM BKN100 FM242000 24008KT P6SM BKN060 FM242300 24008KT P6SM VCSH BKN060